Time;durP1;ratioP1;P1;durP2;ratioP2;P2;SDS_P1;SDS_P2;PMS_P1;PMS_P2;Temp;Humidity;BMP_temperature;BMP_pressure;BME280_temperature;BME280_humidity;BME280_pressure;Samples;Min_cycle;Max_cycle;Signal;HPM_P1;HPM_P2
2021/03/09 00:00:19;;;;;;;12.00;3.88;;;0.90;81.90;;;;;;5022901;28;20053;-58
2021/03/09 00:02:46;;;;;;;8.98;3.65;;;0.90;82.00;;;;;;5019772;28;20053;-58
2021/03/09 00:05:13;;;;;;;8.93;4.40;;;1.00;82.00;;;;;;5019757;28;20068;-58
2021/03/09 00:07:42;;;;;;;9.82;4.07;;;1.00;81.90;;;;;;5019109;28;20054;-57
2021/03/09 00:10:11;;;;;;;8.43;3.17;;;1.00;82.00;;;;;;5020810;28;20087;-57
2021/03/09 00:12:38;;;;;;;6.88;3.20;;;1.00;82.40;;;;;;5017765;28;20069;-58
2021/03/09 00:15:08;;;;;;;8.32;2.88;;;0.80;82.50;;;;;;5005119;28;20056;-57
2021/03/09 00:17:34;;;;;;;7.85;3.15;;;0.80;82.60;;;;;;5019172;28;20050;-58
2021/03/09 00:20:02;;;;;;;9.00;2.95;;;0.80;82.50;;;;;;5020782;28;20049;-58
2021/03/09 00:22:35;;;;;;;8.13;3.17;;;0.80;82.40;;;;;;5024629;28;20042;-58
2021/03/09 00:25:07;;;;;;;4.25;1.80;;;0.80;82.50;;;;;;5008053;28;20052;-59
2021/03/09 00:27:34;;;;;;;5.22;2.38;;;0.70;82.70;;;;;;5021442;28;20209;-58
2021/03/09 00:30:01;;;;;;;7.78;2.83;;;0.70;82.90;;;;;;5022591;28;20344;-58
2021/03/09 00:32:36;;;;;;;8.07;2.55;;;0.70;82.90;;;;;;5024869;28;20112;-58
2021/03/09 00:35:05;;;;;;;9.18;3.42;;;0.70;82.80;;;;;;5025375;28;20053;-58
2021/03/09 00:37:32;;;;;;;6.88;2.42;;;0.70;82.70;;;;;;5022712;28;20069;-58
2021/03/09 00:39:59;;;;;;;10.50;3.03;;;0.70;83.00;;;;;;5022553;28;20053;-59
2021/03/09 00:42:26;;;;;;;8.73;3.75;;;0.80;82.80;;;;;;5024319;28;20061;-57
2021/03/09 00:44:52;;;;;;;7.55;2.72;;;1.00;82.10;;;;;;5024428;28;20045;-59
2021/03/09 00:47:19;;;;;;;7.63;3.45;;;1.00;81.80;;;;;;5019765;28;20049;-58
2021/03/09 00:49:47;;;;;;;11.68;3.95;;;1.00;81.80;;;;;;5021516;28;20121;-59
2021/03/09 00:52:14;;;;;;;10.10;4.10;;;1.00;82.00;;;;;;5018395;28;20688;-58
2021/03/09 00:54:41;;;;;;;10.18;3.55;;;1.00;81.90;;;;;;5020051;28;20058;-58
2021/03/09 00:57:08;;;;;;;9.18;2.60;;;1.00;82.00;;;;;;5021708;28;20361;-59
2021/03/09 00:59:35;;;;;;;9.48;3.17;;;1.00;81.90;;;;;;5023536;28;20218;-58
2021/03/09 01:02:02;;;;;;;16.48;3.78;;;0.90;82.30;;;;;;5021061;28;20058;-58
2021/03/09 01:04:29;;;;;;;7.68;3.75;;;1.00;82.40;;;;;;5020094;28;20273;-57
2021/03/09 01:06:56;;;;;;;11.40;4.22;;;1.00;82.40;;;;;;5021989;28;20064;-58
2021/03/09 01:09:23;;;;;;;7.85;3.40;;;0.90;82.60;;;;;;5020813;28;20042;-58
2021/03/09 01:11:50;;;;;;;12.70;4.10;;;0.80;83.40;;;;;;5020229;28;20046;-59
2021/03/09 01:14:17;;;;;;;9.13;3.97;;;0.90;83.30;;;;;;5022522;28;20042;-58
2021/03/09 01:16:45;;;;;;;14.68;4.55;;;1.00;83.00;;;;;;5021079;28;20315;-57
2021/03/09 01:19:12;;;;;;;12.13;4.60;;;1.10;82.80;;;;;;5019923;28;20315;-58
2021/03/09 01:21:38;;;;;;;9.10;3.53;;;1.00;82.80;;;;;;5020547;28;20061;-57
2021/03/09 01:24:08;;;;;;;9.10;3.55;;;1.00;83.20;;;;;;5017956;28;20046;-57
2021/03/09 01:26:35;;;;;;;7.97;3.45;;;0.90;83.70;;;;;;5023555;28;20041;-56
2021/03/09 01:29:04;;;;;;;8.15;4.10;;;0.90;83.60;;;;;;5022377;28;20050;-57
2021/03/09 01:31:30;;;;;;;8.13;3.78;;;0.90;83.70;;;;;;5021454;28;20057;-58
2021/03/09 01:33:57;;;;;;;10.55;3.35;;;0.90;83.70;;;;;;5021663;28;20057;-59
2021/03/09 01:36:24;;;;;;;9.48;4.38;;;1.00;83.80;;;;;;5022065;28;20136;-58
2021/03/09 01:38:51;;;;;;;9.20;4.20;;;1.00;83.90;;;;;;5022283;28;20058;-58
2021/03/09 01:41:19;;;;;;;11.30;3.47;;;1.00;83.70;;;;;;5024895;28;20092;-57
2021/03/09 01:43:45;;;;;;;7.88;3.15;;;1.00;83.80;;;;;;5023352;28;20418;-58
2021/03/09 01:46:13;;;;;;;11.98;3.90;;;1.10;83.60;;;;;;5022515;28;20061;-59
2021/03/09 01:48:43;;;;;;;6.78;3.33;;;1.00;83.60;;;;;;5024337;28;20053;-58
2021/03/09 01:51:11;;;;;;;7.78;3.17;;;1.00;83.70;;;;;;5012407;28;20279;-58
2021/03/09 01:53:38;;;;;;;7.65;3.65;;;0.90;83.80;;;;;;5018725;28;20113;-57
2021/03/09 01:56:06;;;;;;;10.18;2.92;;;0.90;83.60;;;;;;5016829;28;20101;-58
2021/03/09 01:58:35;;;;;;;5.47;2.83;;;0.90;83.50;;;;;;5019578;28;20233;-58
2021/03/09 02:01:02;;;;;;;6.22;2.72;;;1.00;83.60;;;;;;5018698;28;20112;-58
2021/03/09 02:03:29;;;;;;;6.18;3.25;;;0.90;83.60;;;;;;5019310;28;20108;-58
2021/03/09 02:05:56;;;;;;;9.30;3.15;;;1.10;83.30;;;;;;5017693;28;20073;-57
2021/03/09 02:08:23;;;;;;;5.55;2.55;;;1.00;83.30;;;;;;5019239;28;20104;-57
2021/03/09 02:10:50;;;;;;;8.35;2.88;;;1.10;83.40;;;;;;5022040;28;20066;-57
2021/03/09 02:13:33;;;;;;;8.50;3.50;;;1.10;83.30;;;;;;5019124;28;20104;-58
2021/03/09 02:16:09;;;;;;;9.43;3.42;;;1.10;83.20;;;;;;5018833;28;20041;-58
2021/03/09 02:18:43;;;;;;;8.85;3.67;;;1.10;83.20;;;;;;5016563;28;20045;-59
2021/03/09 02:21:38;;;;;;;7.75;3.03;;;1.10;83.20;;;;;;5007307;28;20056;-58
2021/03/09 02:24:37;;;;;;;8.75;3.33;;;1.20;83.30;;;;;;5019772;28;20050;-59
2021/03/09 02:27:17;;;;;;;7.95;3.38;;;1.30;83.00;;;;;;5010026;28;20108;-57
2021/03/09 02:30:06;;;;;;;14.48;4.28;;;1.30;82.90;;;;;;5013362;28;20049;-57
2021/03/09 02:32:39;;;;;;;7.28;3.13;;;1.30;83.00;;;;;;5013801;28;20353;-59
2021/03/09 02:35:11;;;;;;;11.18;3.33;;;1.30;83.10;;;;;;5002799;28;20050;-58
2021/03/09 02:37:41;;;;;;;14.02;4.85;;;1.30;83.20;;;;;;5020915;28;20053;-58
2021/03/09 02:40:12;;;;;;;8.95;3.60;;;1.30;83.30;;;;;;5017986;28;20398;-58
2021/03/09 02:42:46;;;;;;;8.10;3.45;;;1.40;83.00;;;;;;5021913;28;20049;-58
2021/03/09 02:45:19;;;;;;;7.63;3.15;;;1.40;82.70;;;;;;5019653;28;20365;-57
2021/03/09 02:47:48;;;;;;;9.27;3.72;;;1.30;82.60;;;;;;5016582;28;20102;-58
2021/03/09 02:50:19;;;;;;;8.38;3.05;;;1.30;82.60;;;;;;5017042;28;20362;-59
2021/03/09 02:52:50;;;;;;;8.77;3.30;;;1.30;82.70;;;;;;5019469;28;22975;-58
2021/03/09 02:55:20;;;;;;;5.70;2.38;;;1.30;82.60;;;;;;5019749;28;20716;-58
2021/03/09 02:57:48;;;;;;;9.60;3.05;;;1.30;82.50;;;;;;5018329;28;20076;-58
2021/03/09 03:00:17;;;;;;;8.55;3.60;;;1.30;82.60;;;;;;5015193;28;20694;-58
2021/03/09 03:02:45;;;;;;;7.50;3.42;;;1.30;82.40;;;;;;5013826;28;20234;-58
2021/03/09 03:05:14;;;;;;;7.10;3.67;;;1.20;82.30;;;;;;5010742;28;20053;-57
2021/03/09 03:07:42;;;;;;;11.30;3.83;;;1.30;82.60;;;;;;5019872;28;20411;-59
2021/03/09 03:10:15;;;;;;;8.48;4.18;;;1.30;82.60;;;;;;5024881;28;20111;-58
2021/03/09 03:12:43;;;;;;;8.55;2.67;;;1.30;82.50;;;;;;5014509;28;20057;-57
2021/03/09 03:15:13;;;;;;;11.48;4.18;;;1.20;82.90;;;;;;5019930;28;20340;-58
2021/03/09 03:17:42;;;;;;;8.15;2.95;;;1.20;82.40;;;;;;5023827;28;20340;-58
2021/03/09 03:20:14;;;;;;;6.95;3.30;;;1.10;82.40;;;;;;5030248;28;20052;-59
2021/03/09 03:22:42;;;;;;;8.90;3.38;;;1.10;82.60;;;;;;5029900;28;20053;-58
2021/03/09 03:25:11;;;;;;;7.00;2.25;;;1.10;82.70;;;;;;5028761;28;20065;-57
2021/03/09 03:27:39;;;;;;;9.20;2.95;;;1.10;82.60;;;;;;5021817;28;20052;-58
2021/03/09 03:30:09;;;;;;;7.13;3.10;;;1.20;82.70;;;;;;5030240;28;20042;-57
2021/03/09 03:32:36;;;;;;;5.03;2.17;;;1.20;82.40;;;;;;5024498;28;20046;-58
2021/03/09 03:35:08;;;;;;;6.50;2.63;;;1.30;82.40;;;;;;5023597;28;20108;-58
2021/03/09 03:37:36;;;;;;;6.65;2.95;;;1.10;82.80;;;;;;5022168;28;20225;-58
2021/03/09 03:40:08;;;;;;;8.75;2.90;;;1.10;83.00;;;;;;5014083;28;20081;-58
2021/03/09 03:42:39;;;;;;;8.35;3.13;;;1.00;83.30;;;;;;5014887;28;20109;-58
2021/03/09 03:45:07;;;;;;;7.65;3.00;;;1.00;83.10;;;;;;5023273;28;20053;-59
2021/03/09 03:47:34;;;;;;;7.20;3.60;;;1.00;83.20;;;;;;5019192;28;20049;-58
2021/03/09 03:50:06;;;;;;;11.00;2.53;;;1.00;83.20;;;;;;5016707;28;20050;-58
2021/03/09 03:52:39;;;;;;;8.55;2.78;;;1.00;83.50;;;;;;5018201;28;20049;-58
2021/03/09 03:55:16;;;;;;;7.65;2.78;;;1.00;83.60;;;;;;5021623;28;20099;-59
2021/03/09 03:57:48;;;;;;;8.75;3.55;;;0.90;83.50;;;;;;5021987;28;20058;-58
2021/03/09 04:00:17;;;;;;;7.30;2.72;;;0.80;83.70;;;;;;5020320;28;20510;-58
2021/03/09 04:02:45;;;;;;;11.07;3.05;;;0.80;83.90;;;;;;5020662;28;20068;-58
2021/03/09 04:05:15;;;;;;;6.10;3.08;;;0.80;83.70;;;;;;5019996;28;20244;-58
2021/03/09 04:07:43;;;;;;;5.82;2.25;;;0.70;84.00;;;;;;5021663;28;20100;-58
2021/03/09 04:10:11;;;;;;;7.68;3.13;;;0.70;84.10;;;;;;5022072;28;20060;-57
2021/03/09 04:12:38;;;;;;;6.68;2.88;;;0.70;83.80;;;;;;5024754;28;20327;-57
2021/03/09 04:15:07;;;;;;;7.45;3.38;;;0.60;83.90;;;;;;5021680;28;20130;-58
2021/03/09 04:17:35;;;;;;;8.07;3.90;;;0.30;85.20;;;;;;5023458;28;20117;-59
2021/03/09 04:20:05;;;;;;;10.65;4.53;;;0.20;86.00;;;;;;5021289;28;20058;-58
2021/03/09 04:22:34;;;;;;;9.45;3.55;;;0.10;86.20;;;;;;5023834;28;20054;-57
2021/03/09 04:25:01;;;;;;;11.05;4.20;;;0.10;86.80;;;;;;5019844;28;20045;-58
2021/03/09 04:27:29;;;;;;;9.57;3.78;;;0.10;86.80;;;;;;5016082;28;20045;-59
2021/03/09 04:29:57;;;;;;;9.10;4.07;;;0.00;86.90;;;;;;5021011;28;20065;-58
2021/03/09 04:32:26;;;;;;;8.13;3.22;;;0.00;87.30;;;;;;5018786;28;20041;-58
2021/03/09 04:34:54;;;;;;;7.25;3.20;;;0.00;87.30;;;;;;5019232;28;20336;-57
2021/03/09 04:37:21;;;;;;;9.05;4.28;;;0.10;87.40;;;;;;5022090;28;20060;-58
2021/03/09 04:39:51;;;;;;;7.07;3.60;;;0.10;87.00;;;;;;5020782;28;20057;-57
2021/03/09 04:42:17;;;;;;;7.00;3.55;;;0.20;87.10;;;;;;5020970;28;20065;-58
2021/03/09 04:44:44;;;;;;;7.07;3.08;;;0.20;87.00;;;;;;5020154;28;20240;-58
2021/03/09 04:47:11;;;;;;;8.68;4.13;;;0.20;86.60;;;;;;5034964;28;20054;-59
2021/03/09 04:49:39;;;;;;;8.30;3.08;;;0.30;86.10;;;;;;5017624;28;20260;-58
2021/03/09 04:52:06;;;;;;;8.20;3.38;;;0.30;86.20;;;;;;5021888;28;20045;-58
2021/03/09 04:54:34;;;;;;;7.90;3.28;;;0.20;86.40;;;;;;5018751;28;20049;-58
2021/03/09 04:57:02;;;;;;;7.45;3.10;;;0.20;86.30;;;;;;5022736;28;20057;-58
2021/03/09 04:59:31;;;;;;;8.68;3.28;;;0.40;86.40;;;;;;5018818;28;20053;-58
2021/03/09 05:01:58;;;;;;;15.52;4.15;;;0.50;85.50;;;;;;5017740;28;20336;-58
2021/03/09 05:04:25;;;;;;;9.52;4.35;;;0.60;85.30;;;;;;5021629;28;20050;-59
2021/03/09 05:06:52;;;;;;;8.27;3.63;;;0.50;85.40;;;;;;5023046;28;20051;-58
2021/03/09 05:09:19;;;;;;;14.07;4.30;;;0.40;85.70;;;;;;5019465;28;20066;-58
2021/03/09 05:11:46;;;;;;;8.13;3.40;;;0.40;85.90;;;;;;5020564;28;20045;-57
2021/03/09 05:14:13;;;;;;;7.65;3.90;;;0.40;85.70;;;;;;5022273;28;20237;-58
2021/03/09 05:16:40;;;;;;;9.30;3.72;;;0.50;85.80;;;;;;5022638;28;20095;-58
2021/03/09 05:19:07;;;;;;;8.75;3.53;;;0.50;85.80;;;;;;5019436;28;20037;-57
2021/03/09 05:21:34;;;;;;;6.68;3.15;;;0.50;85.50;;;;;;5009834;28;20061;-58
2021/03/09 05:24:01;;;;;;;8.63;3.72;;;0.40;85.60;;;;;;5018396;28;20054;-57
2021/03/09 05:26:30;;;;;;;10.13;3.78;;;0.40;85.90;;;;;;5021940;28;20053;-58
2021/03/09 05:28:59;;;;;;;6.55;3.35;;;0.50;85.70;;;;;;5022868;28;20052;-59
2021/03/09 05:31:26;;;;;;;8.90;3.25;;;0.60;85.60;;;;;;5018855;28;20129;-58
2021/03/09 05:33:53;;;;;;;7.63;3.67;;;0.50;85.10;;;;;;5021133;28;20042;-58
2021/03/09 05:36:20;;;;;;;7.53;2.78;;;0.40;85.60;;;;;;5023061;28;20088;-58
2021/03/09 05:38:47;;;;;;;8.45;3.25;;;0.40;85.60;;;;;;5025030;28;20096;-58
2021/03/09 05:41:14;;;;;;;7.65;3.03;;;0.40;85.70;;;;;;5009111;28;20748;-58
2021/03/09 05:43:41;;;;;;;6.85;2.72;;;0.40;85.90;;;;;;4998578;28;20356;-57
2021/03/09 05:46:08;;;;;;;6.22;3.33;;;0.40;86.00;;;;;;5002292;28;20329;-58
2021/03/09 05:48:37;;;;;;;5.43;2.40;;;0.50;86.10;;;;;;5001155;28;20042;-57
2021/03/09 05:51:04;;;;;;;12.15;2.88;;;0.60;85.70;;;;;;4990866;28;20077;-57
2021/03/09 05:53:31;;;;;;;8.00;2.88;;;0.50;85.50;;;;;;5021422;28;20060;-58
2021/03/09 05:55:58;;;;;;;6.28;3.80;;;0.50;85.50;;;;;;5020174;28;20050;-57
2021/03/09 05:58:26;;;;;;;17.73;4.13;;;0.60;85.10;;;;;;5014430;28;20052;-58
2021/03/09 06:00:54;;;;;;;7.13;3.28;;;0.70;85.30;;;;;;5013276;28;20069;-58
2021/03/09 06:03:21;;;;;;;6.88;3.40;;;0.80;84.90;;;;;;5020176;28;20256;-58
2021/03/09 06:05:50;;;;;;;6.63;3.45;;;0.90;84.50;;;;;;5022529;28;20333;-58
2021/03/09 06:08:17;;;;;;;12.07;4.13;;;1.00;84.00;;;;;;5016483;28;20656;-58
2021/03/09 06:10:45;;;;;;;10.90;5.07;;;1.00;83.70;;;;;;5019893;28;20050;-57
2021/03/09 06:13:33;;;;;;;10.20;3.17;;;1.00;84.00;;;;;;5019209;28;20042;-57
2021/03/09 06:16:00;;;;;;;7.50;2.67;;;0.80;83.90;;;;;;5007964;28;20057;-58
2021/03/09 06:18:29;;;;;;;9.68;3.97;;;0.90;84.30;;;;;;5016647;28;20436;-58
2021/03/09 06:21:11;;;;;;;8.02;3.25;;;0.90;84.00;;;;;;5012186;28;20061;-57
2021/03/09 06:23:38;;;;;;;7.20;3.10;;;1.00;84.10;;;;;;5016202;28;20046;-58
2021/03/09 06:26:32;;;;;;;6.57;3.25;;;0.90;84.20;;;;;;5017296;28;20054;-57
2021/03/09 06:29:07;;;;;;;6.85;3.45;;;1.10;83.30;;;;;;5012571;28;20341;-58
2021/03/09 06:31:41;;;;;;;7.07;3.08;;;1.10;83.50;;;;;;5013098;28;20392;-57
2021/03/09 06:34:21;;;;;;;5.80;2.80;;;1.20;83.20;;;;;;5015176;28;20230;-57
2021/03/09 06:37:05;;;;;;;8.32;3.03;;;1.20;82.90;;;;;;5010509;28;20062;-58
2021/03/09 06:39:50;;;;;;;8.65;3.03;;;1.20;83.10;;;;;;5005275;28;21471;-58
2021/03/09 06:42:36;;;;;;;6.15;2.65;;;1.40;82.20;;;;;;5008993;28;20188;-58
2021/03/09 06:45:08;;;;;;;6.63;3.00;;;1.40;82.30;;;;;;5006644;28;20065;-58
2021/03/09 06:47:38;;;;;;;10.70;2.75;;;1.40;82.60;;;;;;5018088;28;20049;-58
2021/03/09 06:50:07;;;;;;;8.13;2.70;;;1.60;81.70;;;;;;5005766;28;20060;-57
2021/03/09 06:52:35;;;;;;;7.47;3.10;;;1.50;82.00;;;;;;5009326;28;20081;-58
2021/03/09 06:55:06;;;;;;;11.18;4.05;;;1.60;81.80;;;;;;5009887;28;20406;-57
2021/03/09 06:57:33;;;;;;;8.65;3.55;;;1.80;81.40;;;;;;5013530;28;20057;-58
2021/03/09 07:00:00;;;;;;;9.45;3.33;;;1.70;81.40;;;;;;5007302;28;20254;-59
2021/03/09 07:02:27;;;;;;;8.43;3.85;;;2.00;80.60;;;;;;5010436;28;20054;-57
2021/03/09 07:05:01;;;;;;;7.53;3.55;;;2.10;79.90;;;;;;5009567;28;20112;-58
2021/03/09 07:07:32;;;;;;;10.05;3.35;;;2.20;79.50;;;;;;5009191;28;20068;-58
2021/03/09 07:10:02;;;;;;;9.73;3.80;;;2.20;79.60;;;;;;5014270;28;20053;-58
2021/03/09 07:12:30;;;;;;;8.93;4.13;;;2.30;79.10;;;;;;5012223;28;20053;-57
2021/03/09 07:14:58;;;;;;;10.52;3.47;;;2.40;78.70;;;;;;5011700;28;20347;-58
2021/03/09 07:17:27;;;;;;;9.45;4.32;;;2.40;79.00;;;;;;5011532;28;20266;-58
2021/03/09 07:19:55;;;;;;;11.18;4.00;;;2.50;78.60;;;;;;5012722;28;20057;-58
2021/03/09 07:22:24;;;;;;;8.75;4.07;;;2.60;78.60;;;;;;5013640;28;20328;-58
2021/03/09 07:24:59;;;;;;;12.73;5.40;;;2.60;78.20;;;;;;5009555;28;20057;-58
2021/03/09 07:27:37;;;;;;;10.05;4.53;;;2.70;77.70;;;;;;5011432;28;20340;-58
2021/03/09 07:30:14;;;;;;;10.10;4.55;;;2.70;78.10;;;;;;5011266;28;20064;-57
2021/03/09 07:32:47;;;;;;;8.70;4.05;;;2.80;78.20;;;;;;5010407;28;20060;-58
2021/03/09 07:35:15;;;;;;;9.38;4.57;;;2.90;77.50;;;;;;5009837;28;20581;-58
2021/03/09 07:37:43;;;;;;;9.55;4.15;;;2.90;77.60;;;;;;5012939;28;20061;-58
2021/03/09 07:40:12;;;;;;;8.75;3.80;;;3.00;77.50;;;;;;5006792;28;20054;-58
2021/03/09 07:42:41;;;;;;;12.73;5.75;;;3.00;76.90;;;;;;5010535;28;20076;-58
2021/03/09 07:45:11;;;;;;;9.48;3.92;;;3.10;77.20;;;;;;5015075;28;20349;-57
2021/03/09 07:47:45;;;;;;;12.02;4.97;;;3.10;77.10;;;;;;5007121;28;20073;-58
2021/03/09 07:50:14;;;;;;;8.20;4.10;;;3.20;77.10;;;;;;5010416;28;20144;-58
2021/03/09 07:53:04;;;;;;;15.68;8.45;;;3.30;76.50;;;;;;5010168;28;20073;-58
2021/03/09 07:55:31;;;;;;;10.52;5.30;;;3.40;76.00;;;;;;5011160;28;20422;-57
2021/03/09 07:58:21;;;;;;;10.48;5.95;;;3.40;75.60;;;;;;5014640;28;20053;-57
2021/03/09 08:00:50;;;;;;;24.38;14.60;;;3.60;75.40;;;;;;5015659;28;20121;-58
2021/03/09 08:03:18;;;;;;;20.92;13.77;;;3.70;74.90;;;;;;5010538;28;20520;-58
2021/03/09 08:05:55;;;;;;;16.20;9.23;;;3.70;74.60;;;;;;5008482;28;20050;-57
2021/03/09 08:08:45;;;;;;;10.40;5.15;;;3.80;73.90;;;;;;5011276;28;20413;-58
2021/03/09 08:11:37;;;;;;;9.45;4.20;;;4.00;73.50;;;;;;5012492;28;20049;-58
2021/03/09 08:14:24;;;;;;;13.35;5.90;;;4.00;73.10;;;;;;5005700;28;20049;-58
2021/03/09 08:16:50;;;;;;;10.77;6.38;;;4.20;72.70;;;;;;5009939;28;20432;-57
2021/03/09 08:19:40;;;;;;;11.20;6.28;;;4.20;72.40;;;;;;5009829;28;20137;-56
2021/03/09 08:22:08;;;;;;;9.32;4.80;;;4.40;72.10;;;;;;5014556;28;20185;-58
2021/03/09 08:24:57;;;;;;;9.95;4.40;;;4.50;71.80;;;;;;5006502;28;20331;-57
2021/03/09 08:27:41;;;;;;;19.77;11.77;;;4.60;71.80;;;;;;4998617;28;20361;-58
2021/03/09 08:30:36;;;;;;;12.75;5.30;;;4.70;71.10;;;;;;4993098;28;20049;-58
2021/03/09 08:33:35;;;;;;;17.17;5.32;;;4.70;70.70;;;;;;4991216;28;20061;-59
2021/03/09 08:36:34;;;;;;;13.32;6.00;;;4.80;70.40;;;;;;4988491;28;20096;-58
2021/03/09 08:39:17;;;;;;;11.80;6.30;;;4.90;70.40;;;;;;4995043;28;20080;-57
2021/03/09 08:42:00;;;;;;;9.95;4.22;;;5.00;68.90;;;;;;4993649;28;20096;-57
2021/03/09 08:44:28;;;;;;;12.95;4.53;;;5.00;69.00;;;;;;4994305;28;20081;-57
2021/03/09 08:46:59;;;;;;;17.90;9.45;;;5.10;69.10;;;;;;4977344;28;20393;-58
2021/03/09 08:49:45;;;;;;;15.43;7.40;;;5.20;68.60;;;;;;4997692;28;20056;-58
2021/03/09 08:52:32;;;;;;;12.77;6.32;;;5.20;67.80;;;;;;4995497;28;20113;-57
2021/03/09 08:55:06;;;;;;;8.18;4.35;;;5.30;67.60;;;;;;4992987;28;20114;-57
2021/03/09 08:57:33;;;;;;;14.52;5.85;;;5.50;67.60;;;;;;4997017;28;20061;-58
2021/03/09 09:00:04;;;;;;;10.98;4.78;;;5.60;66.60;;;;;;4990342;28;20338;-58
2021/03/09 09:02:39;;;;;;;10.70;5.22;;;5.70;66.40;;;;;;4996419;28;20328;-59
2021/03/09 09:05:07;;;;;;;13.45;5.38;;;5.80;65.20;;;;;;4992068;28;20065;-59
2021/03/09 09:07:36;;;;;;;15.00;5.55;;;5.90;64.80;;;;;;4995416;28;20242;-59
2021/03/09 09:10:08;;;;;;;11.60;4.95;;;6.10;64.20;;;;;;4996143;28;20050;-59
2021/03/09 09:12:36;;;;;;;14.32;5.50;;;6.20;64.20;;;;;;5002960;28;20053;-59
2021/03/09 09:15:19;;;;;;;12.18;5.28;;;6.30;64.00;;;;;;4996021;28;20061;-59
2021/03/09 09:17:49;;;;;;;11.68;6.40;;;6.50;63.50;;;;;;5015340;28;20103;-59
2021/03/09 09:20:19;;;;;;;15.60;5.55;;;6.70;62.80;;;;;;5012130;28;21219;-58
2021/03/09 09:22:47;;;;;;;11.88;5.28;;;6.80;61.30;;;;;;5014958;28;20108;-59
2021/03/09 09:25:17;;;;;;;14.05;6.07;;;7.00;61.50;;;;;;5013897;28;20586;-58
2021/03/09 09:27:47;;;;;;;;;;;7.40;60.30;;;;;;5028504;28;20060;-59
2021/03/09 09:30:18;;;;;;;15.00;7.05;;;7.70;59.20;;;;;;5003357;28;20542;-59
2021/03/09 09:33:05;;;;;;;12.60;5.60;;;7.90;58.70;;;;;;4994579;28;20081;-59
2021/03/09 09:35:33;;;;;;;11.13;4.82;;;7.70;57.20;;;;;;4993819;28;20685;-58
2021/03/09 09:38:04;;;;;;;12.70;5.90;;;8.00;55.90;;;;;;4997566;28;20050;-59
2021/03/09 09:40:35;;;;;;;17.30;6.50;;;8.20;56.10;;;;;;4994143;28;20286;-59
2021/03/09 09:43:05;;;;;;;16.10;5.97;;;8.50;55.00;;;;;;4995586;28;20235;-59
2021/03/09 09:45:34;;;;;;;13.68;6.25;;;8.70;54.80;;;;;;4992347;28;20046;-59
2021/03/09 09:48:01;;;;;;;15.40;6.18;;;8.90;52.50;;;;;;4995387;28;20264;-59
2021/03/09 09:50:34;;;;;;;14.07;6.00;;;9.30;52.30;;;;;;4995102;28;20045;-59
2021/03/09 09:53:04;;;;;;;12.07;5.50;;;10.20;49.90;;;;;;4998852;28;20055;-58
2021/03/09 09:55:32;;;;;;;13.90;6.55;;;10.30;49.60;;;;;;4989651;28;20061;-58
2021/03/09 09:58:00;;;;;;;12.07;5.40;;;10.50;49.10;;;;;;4998042;28;20046;-59
2021/03/09 10:00:31;;;;;;;10.15;4.85;;;10.80;45.90;;;;;;4995667;28;20156;-59
2021/03/09 10:03:09;;;;;;;13.53;5.37;;;11.40;46.20;;;;;;4988747;28;20244;-59
2021/03/09 10:05:38;;;;;;;9.15;4.45;;;11.40;43.70;;;;;;4990722;28;20685;-60
2021/03/09 10:08:08;;;;;;;12.60;5.45;;;11.50;44.00;;;;;;4991267;28;20487;-60
2021/03/09 10:10:37;;;;;;;8.73;3.70;;;11.50;43.60;;;;;;4990828;28;20367;-59
2021/03/09 10:13:20;;;;;;;8.85;3.67;;;11.50;40.40;;;;;;4991463;28;20058;-59
2021/03/09 10:15:48;;;;;;;13.93;4.10;;;11.10;42.30;;;;;;4993898;28;20052;-59
2021/03/09 10:18:22;;;;;;;6.85;2.92;;;10.70;43.30;;;;;;4991753;28;20491;-59
2021/03/09 10:21:00;;;;;;;10.25;4.68;;;10.80;42.10;;;;;;4993750;28;20050;-59
2021/03/09 10:23:31;;;;;;;8.85;3.80;;;10.60;42.60;;;;;;4988202;28;20060;-59
2021/03/09 10:26:00;;;;;;;6.90;3.47;;;10.40;42.60;;;;;;4991803;28;20089;-58
2021/03/09 10:28:33;;;;;;;9.00;3.67;;;10.20;43.40;;;;;;5004141;28;20073;-59
2021/03/09 10:31:12;;;;;;;7.68;3.25;;;10.10;43.30;;;;;;4996735;28;20072;-59
2021/03/09 10:33:39;;;;;;;9.32;3.65;;;9.70;43.60;;;;;;4989961;28;22961;-59
2021/03/09 10:36:10;;;;;;;8.63;3.53;;;9.60;43.80;;;;;;4992989;28;20034;-59
2021/03/09 10:38:38;;;;;;;9.15;3.20;;;9.60;44.30;;;;;;4990785;28;20092;-59
2021/03/09 10:41:05;;;;;;;9.20;4.47;;;9.70;44.40;;;;;;5004075;28;20065;-59
2021/03/09 10:43:40;;;;;;;11.10;4.18;;;10.20;43.70;;;;;;5014726;28;20100;-58
2021/03/09 10:46:07;;;;;;;8.93;3.35;;;11.10;41.90;;;;;;5012627;28;20058;-59
2021/03/09 10:48:34;;;;;;;10.00;3.67;;;11.30;41.40;;;;;;5013024;28;20130;-58
2021/03/09 10:51:02;;;;;;;8.35;3.70;;;10.80;41.70;;;;;;5019167;28;20104;-59
2021/03/09 10:53:32;;;;;;;11.27;4.10;;;10.00;42.70;;;;;;5011930;28;20141;-59
2021/03/09 10:55:59;;;;;;;10.82;3.70;;;9.90;43.60;;;;;;5013289;28;20053;-58
2021/03/09 10:58:26;;;;;;;9.38;3.65;;;9.50;44.90;;;;;;5017216;28;20053;-59
2021/03/09 11:00:53;;;;;;;10.18;4.00;;;9.60;45.40;;;;;;5017144;28;20053;-59
2021/03/09 11:03:20;;;;;;;7.95;3.30;;;9.90;45.30;;;;;;5014923;28;20080;-59
2021/03/09 11:05:47;;;;;;;9.63;4.60;;;10.00;44.50;;;;;;5020890;28;20344;-59
2021/03/09 11:08:16;;;;;;;8.85;4.28;;;10.00;44.50;;;;;;5021854;28;20418;-59
2021/03/09 11:10:44;;;;;;;8.15;4.10;;;10.20;44.70;;;;;;5021864;28;20061;-59
2021/03/09 11:13:13;;;;;;;7.93;3.08;;;10.70;43.90;;;;;;5019895;28;20049;-59
2021/03/09 11:15:40;;;;;;;8.38;3.38;;;10.70;43.00;;;;;;5016050;28;20038;-59
2021/03/09 11:18:07;;;;;;;7.03;3.13;;;10.30;44.30;;;;;;5021911;28;20045;-59
2021/03/09 11:20:34;;;;;;;9.98;3.60;;;10.50;43.90;;;;;;5018478;28;20042;-59
2021/03/09 11:23:01;;;;;;;7.47;3.40;;;11.00;42.90;;;;;;5014901;28;20060;-59
2021/03/09 11:25:29;;;;;;;9.02;3.38;;;11.10;42.40;;;;;;5013763;28;20770;-59
2021/03/09 11:27:57;;;;;;;9.25;3.05;;;11.10;42.80;;;;;;5012290;28;20065;-59
2021/03/09 11:30:24;;;;;;;7.78;3.38;;;11.50;40.80;;;;;;5016367;28;21971;-59
2021/03/09 11:32:51;;;;;;;8.32;3.92;;;10.70;42.60;;;;;;5022283;28;20125;-59
2021/03/09 11:35:18;;;;;;;8.18;3.28;;;10.90;42.10;;;;;;5014508;28;20057;-59
2021/03/09 11:37:45;;;;;;;12.50;3.58;;;10.50;43.50;;;;;;5015247;28;20061;-59
2021/03/09 11:40:13;;;;;;;7.78;3.95;;;10.00;44.50;;;;;;5010540;28;20049;-59
2021/03/09 11:42:40;;;;;;;9.27;4.40;;;9.70;45.10;;;;;;5017120;28;20053;-59
2021/03/09 11:45:11;;;;;;;10.07;3.38;;;9.30;45.80;;;;;;5008022;28;20367;-59
2021/03/09 11:47:39;;;;;;;10.85;3.55;;;9.10;46.60;;;;;;5012574;28;20509;-59
2021/03/09 11:50:07;;;;;;;8.00;3.42;;;9.00;47.50;;;;;;5019905;28;20123;-60
2021/03/09 11:52:34;;;;;;;7.45;3.13;;;9.10;46.70;;;;;;5017205;28;20041;-60
2021/03/09 11:55:01;;;;;;;6.72;3.13;;;9.20;47.30;;;;;;5016308;28;20084;-60
2021/03/09 11:57:30;;;;;;;10.63;3.28;;;8.90;47.70;;;;;;5025316;28;20056;-59
2021/03/09 11:59:57;;;;;;;8.32;3.20;;;8.90;47.80;;;;;;5023724;28;20103;-59
2021/03/09 12:02:24;;;;;;;7.03;2.92;;;8.90;47.70;;;;;;5019930;28;20392;-59
2021/03/09 12:04:52;;;;;;;7.22;3.05;;;8.70;47.90;;;;;;5014525;28;20082;-59
2021/03/09 12:07:19;;;;;;;7.68;3.42;;;8.70;48.50;;;;;;5018044;28;20042;-58
2021/03/09 12:09:46;;;;;;;9.68;3.17;;;8.60;48.50;;;;;;5018240;28;20332;-60
2021/03/09 12:12:13;;;;;;;8.43;2.80;;;8.50;48.80;;;;;;5016029;28;20157;-59
2021/03/09 12:14:40;;;;;;;7.13;3.63;;;8.40;47.70;;;;;;5017447;28;20054;-59
2021/03/09 12:17:07;;;;;;;7.25;2.97;;;8.50;47.80;;;;;;5016785;28;20050;-60
2021/03/09 12:19:35;;;;;;;5.95;2.42;;;8.30;48.00;;;;;;5022637;28;20292;-60
2021/03/09 12:22:03;;;;;;;7.18;2.60;;;8.60;47.20;;;;;;5021974;28;20060;-59
2021/03/09 12:24:30;;;;;;;4.93;2.78;;;8.90;46.70;;;;;;5022395;28;20054;-60
2021/03/09 12:26:57;;;;;;;7.28;2.63;;;9.00;46.20;;;;;;5020879;28;20344;-59
2021/03/09 12:29:24;;;;;;;6.07;2.90;;;9.20;45.90;;;;;;5023605;28;20045;-60
2021/03/09 12:31:50;;;;;;;7.95;3.00;;;9.50;45.40;;;;;;5026641;28;20254;-60
2021/03/09 12:34:23;;;;;;;6.05;3.25;;;9.30;45.40;;;;;;3216309;28;10021437;-60
2021/03/09 12:36:51;;;;;;;6.20;3.17;;;9.10;46.40;;;;;;2581117;28;10001990;-60
2021/03/09 12:39:18;;;;;;;7.22;3.10;;;9.10;46.40;;;;;;4990809;28;20300;-61
2021/03/09 12:41:45;;;;;;;8.02;3.38;;;9.10;46.50;;;;;;4989321;28;20328;-60
2021/03/09 12:44:12;;;;;;;7.97;3.40;;;9.20;46.20;;;;;;4983126;28;20050;-59
2021/03/09 12:46:39;;;;;;;7.38;3.22;;;9.20;46.40;;;;;;4978595;28;20146;-60
2021/03/09 12:49:06;;;;;;;9.75;4.13;;;9.20;46.80;;;;;;4984553;28;20053;-60
2021/03/09 12:51:33;;;;;;;6.70;3.90;;;9.70;46.00;;;;;;4982242;28;20054;-60
2021/03/09 12:54:02;;;;;;;5.53;3.03;;;9.70;45.00;;;;;;4987570;28;20050;-61
2021/03/09 12:56:30;;;;;;;10.93;3.80;;;10.20;44.70;;;;;;4987942;28;20361;-61
2021/03/09 12:58:57;;;;;;;9.90;4.50;;;10.10;45.60;;;;;;4985556;28;20121;-60
2021/03/09 13:01:24;;;;;;;9.55;4.38;;;9.80;47.00;;;;;;4991507;28;20097;-61
2021/03/09 13:03:52;;;;;;;10.70;4.70;;;9.70;47.50;;;;;;4993855;28;20053;-60
2021/03/09 13:06:19;;;;;;;8.57;4.18;;;9.60;48.10;;;;;;4987476;28;20397;-60
2021/03/09 13:08:46;;;;;;;8.93;4.32;;;9.20;49.40;;;;;;4988391;28;20066;-60